Hlavní strana
METAR-TAF:

METAR-TAF

Letiště :

Selebi-Phikwe, Botswana

zeměpisná šířka: 22-03-19S, zeměpisná délka: 027-49-13E, výška: 892 m

Aktuální stav počasí

Zpráva byla vytvořena před 7 hodinami a 14 minutami, v 18:00 UTC
Jihojihovýchodní vítr 5 kt
Teplota 24°C
Vlhkost vzduchu 83%
Tlak 1013 hPa
Viditelnost 10 km a více
Oblačno až skoro zataženo ve výšce 2000 ft
Skoro jasno ve výšce 3000 ft, Cumulonimbus.

METAR: FBSP 071800Z 15005KT 9999 BKN020 FEW030CB 24/21 Q1013

Čas: 03:14 (01:14 UTC)

Předpověď počasí

Zpráva byla vytvořena před 13 hodinami a 14 minutami, v 12:00 UTC
Předpověď platná od 07 v 15 UTC do 07 v 24 UTC
Západní vítr 5 kt
Viditelnost 10 km a více
Polojasno ve výšce 2000 ft
Skoro jasno ve výšce 3500 ft, Cumulonimbus.
Polojasno ve výšce 7000 ft
Pravděpodobnost 40% :
Dočasný
od 07 v 15 UTC do 07 v 24 UTC
bouřka, déšť

TAF: FBSP 071200Z 0715/0724 27005KT 9999 SCT020 FEW035CB SCT070 PROB40 TEMPO 0715/0724 TSRA

Stav a předpovědi počasí z více než 4 000 letišť (zprávy METAR a TAF).

Červené a žluté tečky na mapě představují dostupné meteorologické stanice.

Když kurzor umístíte na tečku, zobrazí se název stanice.

Pak kliknutím zobrazíte stav a předpověď počasí.

Chcete-li změnit mapu, kliknutím na zelené tlačítko se znaménkem +mapu přiblížíte, kliknutím na zelené tlačítko se znaménkem – mapu oddálíte a kliknutím na zelené šipky přejdete na sousední mapy.


METAR-TAF: